Date,TemperatureHighF,TemperatureAvgF,TemperatureLowF,DewpointHighF,DewpointAvgF,DewpointLowF,HumidityHigh,HumidityAvg,HumidityLow,PressureMaxIn,PressureMinIn,WindSpeedMaxMPH,WindSpeedAvgMPH,GustSpeedMaxMPH,PrecipitationSumIn
2013-11-1,54,45,36,34,25,15,73,47,22,30.06,29.79,26,5,27,0.00
2013-11-2,68,46,27,29,22,15,73,44,16,30.10,29.64,8,2,8,0.00
2013-11-3,71,52,37,31,20,13,75,32,14,29.74,29.42,16,3,18,0.00
2013-11-4,44,37,30,31,20,10,85,54,25,29.88,29.72,15,4,16,0.00
2013-11-5,45,35,27,25,14,0,73,45,21,30.04,29.77,10,4,14,0.00
2013-11-6,54,40,25,16,10,-4,46,29,21,30.22,30.00,21,5,28,0.00
2013-11-7,60,44,29,26,20,14,59,39,22,30.26,29.88,10,3,12,0.00
2013-11-8,68,51,33,27,21,14,65,35,16,29.91,29.66,14,3,15,0.00
2013-11-9,68,50,36,34,26,20,67,44,16,30.06,29.86,14,2,14,0.00
2013-11-10,69,49,30,33,24,17,84,44,15,30.13,29.90,8,2,10,0.00
2013-11-11,70,42,32,33,25,19,91,58,15,30.46,30.04,17,4,24,0.00
2013-11-12,62,45,32,34,28,23,91,57,22,30.48,30.18,8,2,12,0.00
2013-11-13,71,54,30,24,19,9,73,29,14,30.23,29.77,9,3,10,0.06
2013-11-14,61,51,39,35,27,10,58,40,24,29.93,29.63,23,4,24,0.00
2013-11-15,65,50,0,27,20,12,60,32,18,29.91,29.62,15,4,19,0.00
2013-11-16,61,46,33,35,23,15,89,45,20,29.78,29.56,25,5,31,0.00
2013-11-17,58,45,37,27,18,14,63,36,21,30.25,29.79,21,6,30,0.02
2013-11-18,67,46,26,21,17,10,65,34,17,30.33,30.09,11,2,11,0.00
2013-11-19,63,46,30,28,19,11,55,35,19,30.19,29.90,8,1,8,0.00
2013-11-20,60,49,31,29,25,20,76,41,23,30.13,29.91,17,3,22,0.00
2013-11-21,30,18,15,25,12,6,92,77,66,30.71,30.14,13,5,14,0.00
2013-11-22,35,27,17,20,14,4,76,59,35,30.70,30.48,7,2,11,0.05
2013-11-23,35,29,-22,20,15,-61,73,57,10,30.72,30.40,61,2,61,0.05
2013-11-24,39,30,22,28,22,18,84,73,54,30.43,30.09,6,1,11,0.00
2013-11-25,42,37,27,29,22,12,81,57,29,30.39,30.15,14,3,17,0.00
2013-11-26,51,37,25,31,20,14,85,54,25,30.51,30.35,11,2,11,0.00
2013-11-27,66,44,27,23,18,13,63,40,17,30.41,30.13,8,2,13,0.00
2013-11-28,49,37,26,26,23,17,76,58,37,30.42,30.24,8,2,9,0.00
2013-11-29,64,45,27,24,19,13,83,42,18,30.32,30.21,11,2,11,0.05
2013-11-30,61,44,27,21,15,9,56,33,20,30.37,30.21,8,2,14,0.00